Time;durP1;ratioP1;P1;durP2;ratioP2;P2;SDS_P1;SDS_P2;PMS_P1;PMS_P2;Temp;Humidity;BMP_temperature;BMP_pressure;BME280_temperature;BME280_humidity;BME280_pressure;Samples;Min_cycle;Max_cycle;Signal;HPM_P1;HPM_P2
2020/12/04 00:00:14;;;;;;;30.33;15.68;;;3.60;99.90;;;;;;5040920;28;20104;-78
2020/12/04 00:02:40;;;;;;;35.30;18.25;;;3.50;99.90;;;;;;5030929;28;20033;-79
2020/12/04 00:05:07;;;;;;;36.33;18.30;;;3.50;99.90;;;;;;5040210;28;20078;-80
2020/12/04 00:07:32;;;;;;;33.47;19.20;;;3.50;99.90;;;;;;5010631;28;20437;-80
2020/12/04 00:09:58;;;;;;;30.10;17.53;;;3.50;99.90;;;;;;5029600;28;20017;-78
2020/12/04 00:12:24;;;;;;;37.77;19.63;;;3.50;99.90;;;;;;5009908;28;20036;-80
2020/12/04 00:14:49;;;;;;;32.25;17.85;;;3.50;99.90;;;;;;5023157;28;20030;-80
2020/12/04 00:17:15;;;;;;;36.43;19.97;;;3.60;99.90;;;;;;5021422;28;20036;-80
2020/12/04 00:19:41;;;;;;;36.83;19.20;;;3.60;99.90;;;;;;5052263;28;20025;-79
2020/12/04 00:22:07;;;;;;;35.70;18.52;;;3.60;99.90;;;;;;5031663;28;20021;-80
2020/12/04 00:24:32;;;;;;;34.27;18.50;;;3.60;99.90;;;;;;5009426;28;20030;-80
2020/12/04 00:26:59;;;;;;;40.05;21.42;;;3.70;99.90;;;;;;5014746;28;20422;-80
2020/12/04 00:29:26;;;;;;;36.70;19.20;;;3.70;99.90;;;;;;5047639;28;20040;-78
2020/12/04 00:31:53;;;;;;;34.72;17.92;;;3.60;99.90;;;;;;5034130;28;20617;-80
2020/12/04 00:34:20;;;;;;;32.67;16.98;;;3.70;99.90;;;;;;5031974;28;20032;-79
2020/12/04 00:36:47;;;;;;;30.98;16.98;;;3.70;99.90;;;;;;5023304;28;20063;-80
2020/12/04 00:39:13;;;;;;;31.85;16.92;;;3.80;99.90;;;;;;5029271;28;20025;-81
2020/12/04 00:41:39;;;;;;;37.80;18.70;;;3.80;99.90;;;;;;5015197;28;20406;-78
2020/12/04 00:44:04;;;;;;;42.00;21.15;;;3.80;99.90;;;;;;5031146;28;20025;-80
2020/12/04 00:46:30;;;;;;;43.00;20.95;;;3.80;99.90;;;;;;5003077;28;20634;-80
2020/12/04 00:48:56;;;;;;;45.80;21.73;;;3.80;99.90;;;;;;5024252;28;20030;-80
2020/12/04 00:51:21;;;;;;;48.08;23.20;;;3.80;99.90;;;;;;5032007;28;20018;-81
2020/12/04 00:53:47;;;;;;;47.43;22.90;;;3.90;99.90;;;;;;5007742;28;20032;-79
2020/12/04 00:56:13;;;;;;;47.75;23.60;;;3.80;99.90;;;;;;5037494;28;20022;-81
2020/12/04 00:58:38;;;;;;;54.45;23.73;;;3.90;99.90;;;;;;5049689;28;20029;-80
2020/12/04 01:01:04;;;;;;;45.92;23.23;;;3.90;99.90;;;;;;5038858;28;20678;-82
2020/12/04 01:03:30;;;;;;;43.63;21.83;;;3.90;99.90;;;;;;5034756;28;20055;-80
2020/12/04 01:05:55;;;;;;;47.90;22.07;;;4.00;99.90;;;;;;5049108;28;20021;-79
2020/12/04 01:08:21;;;;;;;41.05;20.33;;;4.00;99.90;;;;;;5051934;28;20025;-81
2020/12/04 01:10:48;;;;;;;41.13;21.27;;;3.90;99.90;;;;;;5037848;28;20026;-78
2020/12/04 01:13:13;;;;;;;42.78;20.58;;;4.00;99.90;;;;;;5015241;28;20013;-82
2020/12/04 01:15:39;;;;;;;44.83;22.08;;;4.00;99.90;;;;;;5046641;28;20541;-79
2020/12/04 01:18:05;;;;;;;44.80;21.98;;;4.10;99.90;;;;;;5008140;28;20407;-78
2020/12/04 01:20:32;;;;;;;43.13;21.55;;;4.10;99.90;;;;;;5048377;28;20521;-80
2020/12/04 01:22:57;;;;;;;40.05;21.02;;;4.20;99.90;;;;;;5051485;28;20670;-80
2020/12/04 01:25:23;;;;;;;49.95;23.77;;;4.20;99.90;;;;;;5035454;28;20025;-79
2020/12/04 01:27:49;;;;;;;51.35;24.17;;;4.20;99.90;;;;;;5034466;28;20028;-78
2020/12/04 01:30:14;;;;;;;51.75;24.33;;;4.20;99.90;;;;;;5042478;28;20722;-78
2020/12/04 01:32:40;;;;;;;50.63;23.63;;;4.20;99.90;;;;;;5046236;28;20698;-81
2020/12/04 01:35:05;;;;;;;55.70;25.75;;;4.10;99.90;;;;;;5046602;28;20029;-78
2020/12/04 01:37:32;;;;;;;56.03;26.77;;;4.10;99.90;;;;;;5033379;28;20022;-79
2020/12/04 01:39:58;;;;;;;55.78;26.40;;;4.20;99.90;;;;;;5032042;28;20029;-79
2020/12/04 01:42:23;;;;;;;61.85;26.77;;;4.20;99.90;;;;;;5045876;28;20029;-81
2020/12/04 01:44:49;;;;;;;56.75;26.17;;;4.20;99.90;;;;;;5032838;28;20021;-80
2020/12/04 01:47:17;;;;;;;56.90;25.38;;;4.30;99.90;;;;;;5032123;28;20613;-80
2020/12/04 01:49:44;;;;;;;53.83;25.73;;;4.30;99.90;;;;;;5018014;28;20415;-77
2020/12/04 01:52:09;;;;;;;56.53;25.20;;;4.30;99.90;;;;;;5020629;28;20478;-77
2020/12/04 01:54:36;;;;;;;54.88;24.40;;;4.30;99.90;;;;;;5025483;28;20021;-78
2020/12/04 01:57:02;;;;;;;54.60;25.48;;;4.30;99.90;;;;;;5042074;28;20021;-79
2020/12/04 01:59:27;;;;;;;48.35;23.73;;;4.30;99.90;;;;;;5049884;28;20035;-79
2020/12/04 02:02:08;;;;;;;45.78;21.15;;;4.40;99.90;;;;;;5048050;28;20036;-79
2020/12/04 02:04:34;;;;;;;47.90;22.20;;;4.40;99.90;;;;;;5037933;28;20072;-79
2020/12/04 02:07:07;;;;;;;47.47;23.17;;;4.30;99.90;;;;;;5027464;28;20061;-80
2020/12/04 02:09:37;;;;;;;44.40;20.95;;;4.30;99.90;;;;;;5022383;28;20022;-79
2020/12/04 02:12:05;;;;;;;44.88;20.83;;;4.40;99.90;;;;;;5012205;28;20064;-79
2020/12/04 02:14:33;;;;;;;44.85;21.90;;;4.40;99.90;;;;;;5043440;28;20107;-79
2020/12/04 02:17:03;;;;;;;45.78;20.77;;;4.40;99.90;;;;;;5038098;28;20120;-79
2020/12/04 02:19:34;;;;;;;42.25;20.85;;;4.40;99.90;;;;;;5035613;28;20079;-79
2020/12/04 02:22:00;;;;;;;43.72;21.45;;;4.40;99.90;;;;;;5034924;28;20021;-79
2020/12/04 02:24:26;;;;;;;42.55;20.75;;;4.50;99.90;;;;;;5053050;28;20107;-79
2020/12/04 02:26:53;;;;;;;48.80;21.98;;;4.40;99.90;;;;;;5034964;28;20455;-79
2020/12/04 02:29:19;;;;;;;46.17;21.65;;;4.40;99.90;;;;;;5047589;28;20041;-79
2020/12/04 02:31:45;;;;;;;53.53;22.92;;;4.30;99.90;;;;;;5040326;28;20104;-79
2020/12/04 02:34:11;;;;;;;62.33;25.52;;;4.20;99.90;;;;;;5027062;28;20022;-80
2020/12/04 02:36:36;;;;;;;60.85;25.95;;;4.30;99.90;;;;;;5024367;28;20029;-79
2020/12/04 02:39:03;;;;;;;56.40;25.15;;;4.20;99.90;;;;;;5024729;28;20033;-79
2020/12/04 02:41:29;;;;;;;47.53;21.33;;;4.30;99.90;;;;;;5005151;28;20030;-79
2020/12/04 02:43:54;;;;;;;44.55;22.10;;;4.30;99.90;;;;;;5031351;28;20079;-79
2020/12/04 02:46:20;;;;;;;50.53;22.15;;;4.30;99.90;;;;;;5024086;28;20030;-79
2020/12/04 02:48:45;;;;;;;44.13;20.83;;;4.30;99.90;;;;;;5022612;28;20029;-80
2020/12/04 02:51:11;;;;;;;47.92;20.55;;;4.20;99.90;;;;;;5047299;28;20030;-80
2020/12/04 02:53:37;;;;;;;44.28;20.13;;;4.10;99.90;;;;;;5012342;28;20029;-80
2020/12/04 02:56:03;;;;;;;44.90;21.73;;;4.10;99.90;;;;;;5048626;28;20029;-79
2020/12/04 02:58:29;;;;;;;46.25;21.38;;;4.10;99.90;;;;;;5026477;28;20124;-80
2020/12/04 03:00:55;;;;;;;46.03;19.88;;;4.10;99.90;;;;;;5015293;28;20034;-80
2020/12/04 03:03:21;;;;;;;44.45;20.70;;;4.20;99.90;;;;;;5037690;28;20502;-79
2020/12/04 03:05:46;;;;;;;42.95;20.70;;;4.20;99.90;;;;;;5041027;28;20037;-80
2020/12/04 03:08:12;;;;;;;47.08;20.77;;;4.20;99.90;;;;;;5042559;28;20033;-80
2020/12/04 03:10:38;;;;;;;42.03;19.02;;;4.30;99.90;;;;;;5045407;28;20140;-80
2020/12/04 03:13:04;;;;;;;41.45;19.75;;;4.30;99.90;;;;;;5046038;28;20027;-80
2020/12/04 03:15:29;;;;;;;38.65;19.30;;;4.30;99.90;;;;;;5035338;28;20028;-79
2020/12/04 03:17:55;;;;;;;46.08;20.17;;;4.30;99.90;;;;;;5034667;28;20094;-80
2020/12/04 03:20:21;;;;;;;43.78;20.40;;;4.20;99.90;;;;;;5048286;28;20029;-80
2020/12/04 03:22:46;;;;;;;41.08;19.00;;;4.20;99.90;;;;;;5026231;28;20028;-79
2020/12/04 03:25:12;;;;;;;33.38;18.17;;;4.30;99.90;;;;;;5049995;28;20108;-80
2020/12/04 03:27:38;;;;;;;29.58;15.98;;;4.30;99.90;;;;;;5051566;28;20043;-79
2020/12/04 03:30:04;;;;;;;31.02;15.95;;;4.30;99.90;;;;;;5051353;28;20100;-80
2020/12/04 03:32:30;;;;;;;30.10;15.88;;;4.30;99.90;;;;;;5034037;28;20049;-78
2020/12/04 03:34:56;;;;;;;31.27;16.70;;;4.30;99.90;;;;;;5014600;28;20368;-77
2020/12/04 03:37:21;;;;;;;33.50;16.92;;;4.30;99.90;;;;;;5014347;28;20029;-78
2020/12/04 03:39:47;;;;;;;30.60;14.98;;;4.30;99.90;;;;;;5041366;28;20029;-78
2020/12/04 03:42:13;;;;;;;30.02;15.85;;;4.40;99.90;;;;;;5029897;28;20053;-77
2020/12/04 03:44:39;;;;;;;30.40;15.25;;;4.40;99.90;;;;;;5027574;28;20033;-78
2020/12/04 03:47:04;;;;;;;35.88;16.20;;;4.30;99.90;;;;;;5036746;28;20026;-78
2020/12/04 03:49:30;;;;;;;28.75;15.38;;;4.30;99.90;;;;;;5041846;28;20032;-78
2020/12/04 03:51:56;;;;;;;24.77;14.95;;;4.30;99.90;;;;;;5024547;28;20020;-77
2020/12/04 03:54:21;;;;;;;26.05;15.00;;;4.40;99.90;;;;;;5022401;28;20026;-79
2020/12/04 03:56:47;;;;;;;28.75;14.63;;;4.40;99.90;;;;;;5026035;28;20037;-79
2020/12/04 03:59:13;;;;;;;28.60;14.40;;;4.40;99.90;;;;;;5034043;28;20481;-79
2020/12/04 04:01:38;;;;;;;24.65;14.25;;;4.30;99.90;;;;;;5003596;28;20034;-79
2020/12/04 04:04:04;;;;;;;26.65;14.77;;;4.30;99.90;;;;;;5043860;28;21261;-80
2020/12/04 04:06:30;;;;;;;28.98;14.38;;;4.20;99.90;;;;;;5036433;28;20052;-80
2020/12/04 04:08:55;;;;;;;27.90;14.75;;;4.20;99.90;;;;;;5017462;28;20021;-79
2020/12/04 04:11:21;;;;;;;27.80;14.13;;;4.30;99.90;;;;;;5020230;28;20266;-77
2020/12/04 04:13:46;;;;;;;32.20;16.17;;;4.30;99.90;;;;;;5024584;28;20024;-78
2020/12/04 04:16:12;;;;;;;30.95;16.00;;;4.30;99.90;;;;;;5024109;28;20507;-78
2020/12/04 04:18:38;;;;;;;32.90;15.32;;;4.30;99.90;;;;;;5021795;28;20032;-78
2020/12/04 04:21:12;;;;;;;29.75;15.25;;;4.30;99.90;;;;;;5026097;28;20025;-79
2020/12/04 04:23:37;;;;;;;32.78;16.13;;;4.40;99.90;;;;;;5026593;28;20029;-79
2020/12/04 04:26:04;;;;;;;35.45;16.67;;;4.40;99.90;;;;;;5038702;28;20082;-80
2020/12/04 04:28:30;;;;;;;34.75;15.68;;;4.40;99.90;;;;;;5023211;28;20047;-79
2020/12/04 04:30:55;;;;;;;31.27;15.50;;;4.50;99.90;;;;;;5039109;28;20407;-80
2020/12/04 04:33:22;;;;;;;28.08;15.00;;;4.40;99.90;;;;;;5044364;28;20105;-78
2020/12/04 04:35:47;;;;;;;28.73;14.82;;;4.40;99.90;;;;;;5020162;28;20083;-78
2020/12/04 04:38:14;;;;;;;22.90;14.20;;;4.50;99.90;;;;;;5046840;28;20480;-78
2020/12/04 04:40:40;;;;;;;24.70;13.32;;;4.50;99.90;;;;;;5041107;28;20087;-78
2020/12/04 04:43:10;;;;;;;22.15;12.73;;;4.40;99.90;;;;;;5042560;28;20422;-78
2020/12/04 04:45:40;;;;;;;23.98;12.85;;;4.50;99.90;;;;;;5018581;28;20014;-78
2020/12/04 04:48:15;;;;;;;26.15;13.70;;;4.50;99.90;;;;;;5018052;28;20036;-78
2020/12/04 04:50:44;;;;;;;23.10;12.48;;;4.50;99.90;;;;;;5020374;28;20021;-78
2020/12/04 04:53:11;;;;;;;21.58;12.35;;;4.50;99.90;;;;;;5009405;28;20368;-78
2020/12/04 04:55:41;;;;;;;19.52;11.35;;;4.50;99.90;;;;;;5023508;28;20048;-78
2020/12/04 04:58:07;;;;;;;19.13;11.23;;;4.50;99.90;;;;;;5011988;28;20024;-78
2020/12/04 05:00:33;;;;;;;17.50;11.35;;;4.50;99.90;;;;;;5034088;28;20025;-80
2020/12/04 05:02:59;;;;;;;19.17;11.27;;;4.50;99.90;;;;;;5041813;28;20018;-79
2020/12/04 05:05:44;;;;;;;19.27;12.00;;;4.60;99.90;;;;;;5032105;28;20043;-80
2020/12/04 05:08:19;;;;;;;18.77;11.05;;;4.50;99.90;;;;;;5019664;28;20022;-80
2020/12/04 05:10:45;;;;;;;22.42;12.80;;;4.50;99.90;;;;;;5019703;28;20041;-80
2020/12/04 05:13:12;;;;;;;22.67;12.38;;;4.50;99.90;;;;;;5001267;28;20376;-78
2020/12/04 05:15:39;;;;;;;21.80;12.63;;;4.50;99.90;;;;;;5016895;28;20026;-78
2020/12/04 05:18:12;;;;;;;26.67;13.25;;;4.50;99.90;;;;;;5044935;28;20028;-80
2020/12/04 05:20:49;;;;;;;21.20;12.40;;;4.60;99.90;;;;;;5040829;28;20558;-80
2020/12/04 05:23:15;;;;;;;26.02;13.82;;;4.60;99.90;;;;;;5015989;28;20049;-80
2020/12/04 05:25:43;;;;;;;26.42;13.73;;;4.60;99.90;;;;;;5040507;28;20660;-79
2020/12/04 05:28:18;;;;;;;26.60;12.90;;;4.50;99.90;;;;;;5045086;28;20060;-80
2020/12/04 05:30:46;;;;;;;30.42;14.95;;;4.50;99.90;;;;;;5033110;28;20029;-80
2020/12/04 05:33:12;;;;;;;37.30;17.25;;;4.60;99.90;;;;;;5009570;28;20018;-80
2020/12/04 05:35:39;;;;;;;35.25;17.13;;;4.50;99.90;;;;;;5013307;28;20038;-79
2020/12/04 05:38:08;;;;;;;36.75;16.98;;;4.50;99.90;;;;;;4983600;28;20026;-79
2020/12/04 05:40:35;;;;;;;36.45;17.63;;;4.60;99.90;;;;;;5005189;28;20014;-79
2020/12/04 05:43:02;;;;;;;37.88;17.98;;;4.60;99.90;;;;;;5010015;28;20026;-79
2020/12/04 05:45:27;;;;;;;42.45;18.70;;;4.60;99.90;;;;;;5003167;28;20112;-78
2020/12/04 05:47:53;;;;;;;41.97;18.67;;;4.60;99.90;;;;;;4993539;28;20165;-78
2020/12/04 05:50:19;;;;;;;47.47;20.35;;;4.50;99.90;;;;;;5001927;28;20649;-78
2020/12/04 05:52:48;;;;;;;44.53;20.30;;;4.50;99.90;;;;;;5006441;28;20125;-78
2020/12/04 05:55:15;;;;;;;41.85;19.45;;;4.40;99.90;;;;;;4998416;28;20023;-78
2020/12/04 05:57:54;;;;;;;55.55;22.98;;;4.40;99.90;;;;;;4993377;28;20026;-79
2020/12/04 06:00:21;;;;;;;60.72;25.02;;;4.50;99.90;;;;;;5009028;28;20391;-79
2020/12/04 06:02:58;;;;;;;56.67;24.20;;;4.50;99.90;;;;;;4990774;28;20049;-79
2020/12/04 06:05:26;;;;;;;59.42;25.70;;;4.60;99.90;;;;;;4998742;28;20034;-78
2020/12/04 06:07:57;;;;;;;57.92;23.67;;;4.60;99.90;;;;;;5001093;28;20037;-78
2020/12/04 06:10:23;;;;;;;64.35;27.85;;;4.60;99.90;;;;;;4979726;28;20064;-78
2020/12/04 06:12:55;;;;;;;61.08;26.55;;;4.50;99.90;;;;;;5006591;28;20380;-77
2020/12/04 06:15:26;;;;;;;60.70;24.20;;;4.50;99.90;;;;;;5004837;28;20056;-78
2020/12/04 06:17:59;;;;;;;62.28;25.92;;;4.50;99.90;;;;;;4981627;28;21461;-78
2020/12/04 06:20:24;;;;;;;64.78;27.83;;;4.50;99.90;;;;;;4981008;28;20056;-78
2020/12/04 06:23:10;;;;;;;61.95;25.98;;;4.60;99.90;;;;;;5007738;28;20538;-78
2020/12/04 06:25:51;;;;;;;62.75;26.20;;;4.60;99.90;;;;;;5018834;28;20034;-78
2020/12/04 06:28:18;;;;;;;62.97;24.17;;;4.70;99.90;;;;;;4998661;28;20040;-77
2020/12/04 06:31:07;;;;;;;62.55;25.02;;;4.70;99.90;;;;;;4987157;28;20014;-78
2020/12/04 06:33:47;;;;;;;55.47;23.58;;;4.70;99.90;;;;;;5037433;28;20041;-78
2020/12/04 06:36:34;;;;;;;61.85;27.15;;;4.70;99.90;;;;;;5042229;28;20382;-77
2020/12/04 06:39:02;;;;;;;67.07;27.30;;;4.70;99.90;;;;;;5045561;28;20028;-77
2020/12/04 06:41:45;;;;;;;64.43;27.48;;;4.60;99.90;;;;;;5044826;28;20123;-77
2020/12/04 06:44:18;;;;;;;65.97;27.35;;;4.50;99.90;;;;;;5044525;28;20025;-77
2020/12/04 06:46:46;;;;;;;68.68;28.65;;;4.50;99.90;;;;;;5026999;28;20041;-77
2020/12/04 06:49:23;;;;;;;79.55;30.88;;;4.60;99.90;;;;;;5043866;28;20602;-77
2020/12/04 06:52:14;;;;;;;82.38;33.63;;;4.60;99.90;;;;;;5038247;28;20067;-77
2020/12/04 06:54:51;;;;;;;75.10;31.23;;;4.60;99.90;;;;;;5038760;28;20025;-77
2020/12/04 06:57:22;;;;;;;74.57;31.02;;;4.60;99.90;;;;;;5026835;28;20478;-77
2020/12/04 06:59:47;;;;;;;84.85;31.88;;;4.60;99.90;;;;;;5050728;28;20411;-77
2020/12/04 07:02:21;;;;;;;73.38;31.02;;;4.60;99.90;;;;;;5048129;28;20032;-77
2020/12/04 07:04:48;;;;;;;76.57;29.52;;;4.70;99.90;;;;;;5048670;28;20160;-77
2020/12/04 07:07:25;;;;;;;80.47;32.47;;;4.70;99.90;;;;;;5058400;28;20478;-77
2020/12/04 07:10:01;;;;;;;83.10;33.83;;;4.70;99.90;;;;;;5033236;28;20025;-77
2020/12/04 07:12:28;;;;;;;80.68;31.17;;;4.70;99.90;;;;;;5019807;28;20167;-79
2020/12/04 07:14:59;;;;;;;80.68;30.55;;;4.60;99.90;;;;;;5033397;28;20032;-79
2020/12/04 07:17:26;;;;;;;77.78;31.98;;;4.70;99.90;;;;;;5036962;28;20035;-77
2020/12/04 07:19:54;;;;;;;78.78;32.38;;;4.70;99.90;;;;;;5034463;28;20514;-77
2020/12/04 07:22:24;;;;;;;73.15;29.70;;;4.70;99.90;;;;;;5035324;28;20376;-77
2020/12/04 07:24:52;;;;;;;74.22;30.88;;;4.70;99.90;;;;;;5035017;28;20021;-77
2020/12/04 07:27:24;;;;;;;72.05;29.90;;;4.70;99.90;;;;;;5052982;28;20044;-77
2020/12/04 07:29:49;;;;;;;74.45;29.83;;;4.70;99.90;;;;;;5053077;28;20021;-77
2020/12/04 07:32:22;;;;;;;71.32;29.02;;;4.70;99.90;;;;;;5053082;28;20124;-78
2020/12/04 07:34:48;;;;;;;68.20;28.13;;;4.70;99.90;;;;;;5052853;28;21672;-77
2020/12/04 07:37:14;;;;;;;69.63;29.67;;;4.70;99.90;;;;;;5053155;28;20029;-77
2020/12/04 07:39:41;;;;;;;58.53;26.00;;;4.70;99.90;;;;;;5035100;28;20112;-77
2020/12/04 07:42:09;;;;;;;63.60;26.40;;;4.70;99.90;;;;;;5052946;28;20029;-77
2020/12/04 07:44:40;;;;;;;62.90;26.13;;;4.70;99.90;;;;;;5052750;28;20028;-77
2020/12/04 07:47:16;;;;;;;67.05;28.38;;;4.70;99.90;;;;;;5024134;28;20029;-77
2020/12/04 07:49:46;;;;;;;61.20;27.67;;;4.70;99.90;;;;;;5059125;28;20029;-77
2020/12/04 07:52:22;;;;;;;62.50;25.70;;;4.70;99.90;;;;;;5048284;28;20095;-77
2020/12/04 07:54:55;;;;;;;57.63;23.35;;;4.70;99.90;;;;;;5051138;28;20120;-77
2020/12/04 07:57:28;;;;;;;56.50;23.63;;;4.70;99.90;;;;;;5021603;28;20053;-77
2020/12/04 07:59:55;;;;;;;53.30;23.25;;;4.80;99.90;;;;;;5021189;28;20506;-77
2020/12/04 08:02:24;;;;;;;57.58;22.48;;;4.80;99.90;;;;;;5050041;28;20037;-77
2020/12/04 08:04:51;;;;;;;46.08;20.70;;;4.80;99.90;;;;;;5024714;28;20569;-77
2020/12/04 08:07:16;;;;;;;43.22;20.58;;;4.80;99.90;;;;;;5050484;28;20029;-77
2020/12/04 08:09:44;;;;;;;42.75;19.48;;;4.80;99.90;;;;;;5051217;28;20090;-77
2020/12/04 08:12:12;;;;;;;44.50;20.98;;;4.90;99.90;;;;;;5034291;28;20025;-77
2020/12/04 08:14:39;;;;;;;43.03;19.13;;;4.90;99.90;;;;;;5053521;28;20037;-79
2020/12/04 08:17:08;;;;;;;41.75;19.33;;;4.90;99.90;;;;;;5029440;28;20411;-77
2020/12/04 08:19:36;;;;;;;40.08;18.88;;;5.00;99.90;;;;;;5029553;28;20028;-79
2020/12/04 08:22:06;;;;;;;41.28;19.13;;;5.00;99.90;;;;;;5054502;28;20021;-79
2020/12/04 08:24:50;;;;;;;36.97;16.08;;;5.00;99.90;;;;;;5031147;28;20063;-79
2020/12/04 08:27:17;;;;;;;38.30;17.55;;;5.10;99.90;;;;;;5037759;28;20025;-77
2020/12/04 08:30:00;;;;;;;35.33;17.90;;;5.20;99.90;;;;;;5037139;28;20483;-77
2020/12/04 08:32:26;;;;;;;45.95;21.58;;;5.20;99.90;;;;;;5042279;28;20094;-77
2020/12/04 08:35:16;;;;;;;58.38;26.20;;;5.20;99.90;;;;;;5046095;28;20538;-77
2020/12/04 08:37:43;;;;;;;57.25;24.85;;;5.20;99.90;;;;;;5027358;28;20079;-78
2020/12/04 08:40:22;;;;;;;52.53;24.40;;;5.20;99.90;;;;;;5044793;28;20029;-77
2020/12/04 08:42:49;;;;;;;45.58;21.85;;;5.30;99.90;;;;;;5030735;28;20021;-77
2020/12/04 08:45:14;;;;;;;41.90;19.27;;;5.30;99.90;;;;;;5029773;28;20120;-78
2020/12/04 08:47:45;;;;;;;37.28;18.77;;;5.30;99.90;;;;;;5030696;28;20469;-78
2020/12/04 08:50:19;;;;;;;38.55;18.35;;;5.40;99.90;;;;;;5034707;28;20525;-77
2020/12/04 08:52:55;;;;;;;36.28;17.42;;;5.50;99.90;;;;;;5034254;28;20483;-78
2020/12/04 08:55:22;;;;;;;56.17;22.58;;;5.50;99.90;;;;;;5042017;28;20067;-77
2020/12/04 08:57:48;;;;;;;53.72;24.17;;;5.50;99.90;;;;;;5040891;28;20079;-78
2020/12/04 09:00:17;;;;;;;47.75;22.45;;;5.50;99.90;;;;;;5042871;28;20033;-78
2020/12/04 09:02:43;;;;;;;46.08;21.33;;;5.50;99.90;;;;;;5049885;28;20017;-77
2020/12/04 09:05:11;;;;;;;46.90;22.27;;;5.50;99.90;;;;;;5034549;28;20163;-78
2020/12/04 09:07:38;;;;;;;41.65;20.80;;;5.50;99.90;;;;;;5030258;28;20029;-78
2020/12/04 09:10:06;;;;;;;47.28;20.42;;;5.60;99.90;;;;;;5047075;28;20022;-78
2020/12/04 09:12:32;;;;;;;38.55;18.77;;;5.50;99.90;;;;;;5043450;28;20030;-78
2020/12/04 09:14:58;;;;;;;47.17;20.67;;;5.60;99.90;;;;;;5052791;28;20040;-77
2020/12/04 09:17:24;;;;;;;54.83;22.08;;;5.60;99.90;;;;;;5046961;28;20029;-77
2020/12/04 09:19:49;;;;;;;50.15;21.30;;;5.60;99.90;;;;;;5043822;28;20034;-78
2020/12/04 09:22:15;;;;;;;48.88;21.65;;;5.60;99.90;;;;;;5022945;28;20032;-77
2020/12/04 09:24:43;;;;;;;45.67;20.40;;;5.70;99.90;;;;;;5032574;28;20391;-77
2020/12/04 09:27:08;;;;;;;62.75;29.23;;;5.70;99.90;;;;;;5042775;28;20025;-77
2020/12/04 09:29:35;;;;;;;53.80;26.15;;;5.70;99.90;;;;;;5026623;28;20083;-78
2020/12/04 09:32:09;;;;;;;50.05;24.73;;;5.80;99.90;;;;;;5044410;28;20049;-78
2020/12/04 09:34:35;;;;;;;45.70;22.15;;;5.80;99.90;;;;;;5044376;28;20390;-77
2020/12/04 09:37:29;;;;;;;41.33;20.27;;;5.80;99.90;;;;;;5035678;28;20033;-77
2020/12/04 09:40:13;;;;;;;20.25;9.93;;;5.90;99.90;;;;;;5043751;28;20014;-77
2020/12/04 09:42:41;;;;;;;11.25;7.30;;;6.00;99.90;;;;;;5049208;28;20074;-77
2020/12/04 09:45:08;;;;;;;7.47;5.38;;;6.20;99.90;;;;;;5043256;28;20112;-77
2020/12/04 09:47:35;;;;;;;6.22;4.88;;;6.30;99.90;;;;;;5034599;28;20136;-77
2020/12/04 09:50:02;;;;;;;5.43;4.00;;;6.40;99.90;;;;;;5036455;28;20482;-78
2020/12/04 09:52:28;;;;;;;4.13;3.72;;;6.40;99.90;;;;;;5047560;28;20478;-78
2020/12/04 09:54:56;;;;;;;6.65;4.20;;;6.60;99.90;;;;;;5053574;28;20021;-77
2020/12/04 09:57:22;;;;;;;4.43;4.03;;;6.70;99.90;;;;;;5031611;28;20611;-77
2020/12/04 09:59:48;;;;;;;5.72;3.92;;;6.70;99.90;;;;;;5035756;28;20037;-77
2020/12/04 10:02:13;;;;;;;4.05;3.72;;;6.80;99.90;;;;;;5027884;28;20399;-77
2020/12/04 10:04:39;;;;;;;4.78;3.75;;;6.90;99.90;;;;;;5051665;28;20029;-78
2020/12/04 10:07:07;;;;;;;4.97;3.67;;;6.90;99.90;;;;;;5032228;28;20045;-77
2020/12/04 10:09:33;;;;;;;3.60;3.30;;;6.90;99.90;;;;;;5030019;28;20112;-77
2020/12/04 10:11:59;;;;;;;3.90;3.60;;;7.00;99.90;;;;;;5035520;28;20028;-77
2020/12/04 10:14:25;;;;;;;4.88;4.22;;;7.00;99.90;;;;;;5044839;28;20033;-78
2020/12/04 10:16:51;;;;;;;3.33;3.13;;;7.10;99.90;;;;;;5034058;28;20380;-77
2020/12/04 10:19:18;;;;;;;6.05;5.45;;;7.10;99.90;;;;;;5022365;28;20399;-78
2020/12/04 10:21:45;;;;;;;4.63;3.85;;;7.30;99.90;;;;;;5044823;28;20057;-78
2020/12/04 10:24:12;;;;;;;4.00;3.70;;;7.40;99.90;;;;;;5035454;28;20036;-78
2020/12/04 10:26:39;;;;;;;3.38;3.13;;;7.30;99.90;;;;;;5035162;28;20032;-78
2020/12/04 10:29:06;;;;;;;3.63;3.25;;;7.30;99.90;;;;;;5044683;28;20029;-78
2020/12/04 10:31:32;;;;;;;3.70;3.40;;;7.20;99.90;;;;;;5032189;28;20158;-78
2020/12/04 10:33:58;;;;;;;5.00;3.65;;;7.30;99.90;;;;;;5035345;28;20029;-78
2020/12/04 10:36:24;;;;;;;4.18;3.70;;;7.30;99.90;;;;;;5033000;28;20040;-78
2020/12/04 10:38:50;;;;;;;3.55;3.33;;;7.30;99.90;;;;;;5034788;28;20032;-78
2020/12/04 10:41:16;;;;;;;3.80;3.50;;;7.30;99.90;;;;;;5052513;28;20029;-78
2020/12/04 10:43:41;;;;;;;4.18;3.88;;;7.30;99.90;;;;;;5045690;28;20060;-78
2020/12/04 10:46:07;;;;;;;4.30;3.90;;;7.30;99.90;;;;;;5023909;28;20065;-78
2020/12/04 10:48:33;;;;;;;4.25;3.20;;;7.30;99.90;;;;;;5039633;28;20033;-78
2020/12/04 10:50:58;;;;;;;3.90;3.55;;;7.40;99.90;;;;;;5040128;28;20379;-78
2020/12/04 10:53:26;;;;;;;4.00;3.10;;;7.40;99.90;;;;;;5052239;28;20383;-78
2020/12/04 10:55:52;;;;;;;3.45;2.95;;;7.40;99.90;;;;;;5035003;28;20024;-78
2020/12/04 10:58:17;;;;;;;5.78;4.47;;;7.50;99.90;;;;;;5052037;28;20025;-78
2020/12/04 11:00:48;;;;;;;3.40;3.20;;;7.50;99.90;;;;;;5052626;28;20033;-78
2020/12/04 11:03:27;;;;;;;3.10;2.90;;;7.50;99.90;;;;;;5033244;28;20108;-78
2020/12/04 11:05:53;;;;;;;4.20;2.90;;;7.60;99.90;;;;;;5041689;28;20494;-78
2020/12/04 11:08:18;;;;;;;3.83;2.70;;;7.60;99.90;;;;;;5049689;28;20060;-78
2020/12/04 11:10:45;;;;;;;2.80;2.60;;;7.60;99.90;;;;;;5052688;28;20045;-78
2020/12/04 11:13:11;;;;;;;4.78;3.17;;;7.60;99.90;;;;;;5038101;28;20025;-78
2020/12/04 11:15:37;;;;;;;4.00;2.50;;;7.60;99.90;;;;;;5045288;28;20034;-78
2020/12/04 11:18:03;;;;;;;2.38;2.17;;;7.60;99.90;;;;;;5031960;28;20033;-78
2020/12/04 11:20:28;;;;;;;2.78;2.58;;;7.70;99.90;;;;;;5045449;28;20104;-79
2020/12/04 11:22:54;;;;;;;1.85;1.75;;;7.70;99.90;;;;;;5038120;28;20075;-79
2020/12/04 11:25:21;;;;;;;2.13;2.00;;;7.70;99.90;;;;;;5034096;28;20372;-78
2020/12/04 11:27:48;;;;;;;2.63;2.05;;;7.70;99.90;;;;;;5043454;28;20032;-78
2020/12/04 11:30:19;;;;;;;2.00;1.90;;;7.70;99.90;;;;;;5030350;28;20025;-79
2020/12/04 11:32:45;;;;;;;1.95;1.85;;;7.80;99.90;;;;;;5037994;28;20051;-79
2020/12/04 11:35:12;;;;;;;2.15;2.00;;;7.80;99.90;;;;;;5050478;28;20029;-79
2020/12/04 11:37:39;;;;;;;2.30;2.10;;;7.90;99.90;;;;;;5033612;28;20037;-79
2020/12/04 11:40:07;;;;;;;2.33;2.13;;;7.80;99.90;;;;;;5034250;28;20132;-78
2020/12/04 11:42:33;;;;;;;1.50;1.40;;;7.80;99.90;;;;;;5042736;28;20028;-78
2020/12/04 11:44:59;;;;;;;1.77;1.67;;;7.80;99.90;;;;;;5042752;28;20022;-78
2020/12/04 11:47:28;;;;;;;2.63;1.92;;;7.80;99.90;;;;;;5044285;28;20036;-78
2020/12/04 11:49:53;;;;;;;2.17;1.98;;;7.70;99.90;;;;;;5052073;28;20493;-78
2020/12/04 11:52:22;;;;;;;3.17;2.80;;;7.70;99.90;;;;;;5025602;28;20041;-78
2020/12/04 11:54:48;;;;;;;2.75;2.55;;;7.70;99.90;;;;;;5043088;28;20041;-78
2020/12/04 11:57:14;;;;;;;2.22;2.10;;;7.60;99.90;;;;;;5052167;28;20029;-78
2020/12/04 11:59:40;;;;;;;2.63;2.42;;;7.70;99.90;;;;;;5033989;28;20091;-78
2020/12/04 12:02:06;;;;;;;3.63;3.28;;;7.70;99.90;;;;;;5034251;28;20036;-78
2020/12/04 12:04:32;;;;;;;3.38;2.35;;;7.60;99.90;;;;;;5027032;28;20029;-78
2020/12/04 12:06:57;;;;;;;4.13;3.17;;;7.60;99.90;;;;;;5040789;28;20391;-78
2020/12/04 12:09:23;;;;;;;2.72;2.53;;;7.60;99.90;;;;;;5048677;28;20055;-78
2020/12/04 12:11:49;;;;;;;5.95;3.72;;;7.60;99.90;;;;;;5040423;28;20055;-78
2020/12/04 12:14:15;;;;;;;4.32;3.33;;;7.60;99.90;;;;;;5051688;28;20436;-78
2020/12/04 12:16:47;;;;;;;3.75;3.20;;;7.60;99.90;;;;;;5031526;28;20120;-78
2020/12/04 12:19:14;;;;;;;2.88;2.60;;;7.60;99.90;;;;;;5038354;28;20075;-77
2020/12/04 12:21:43;;;;;;;3.42;3.13;;;7.60;99.90;;;;;;5035554;28;20032;-78
2020/12/04 12:24:11;;;;;;;2.90;2.67;;;7.60;99.90;;;;;;5051853;28;20021;-78
2020/12/04 12:26:37;;;;;;;2.95;2.75;;;7.50;99.90;;;;;;5050808;28;20024;-78
2020/12/04 12:29:03;;;;;;;2.55;2.38;;;7.50;99.90;;;;;;5041793;28;20100;-78
2020/12/04 12:31:29;;;;;;;2.88;2.67;;;7.50;99.90;;;;;;5032348;28;20041;-78
2020/12/04 12:33:55;;;;;;;2.83;2.63;;;7.50;99.90;;;;;;5050498;28;20536;-78
2020/12/04 12:36:21;;;;;;;6.97;3.30;;;7.50;99.90;;;;;;5050982;28;20060;-78
2020/12/04 12:38:47;;;;;;;2.90;2.70;;;7.50;99.90;;;;;;5050999;28;20699;-78
2020/12/04 12:41:13;;;;;;;2.22;2.10;;;7.50;99.90;;;;;;5051620;28;20029;-78
2020/12/04 12:43:39;;;;;;;1.85;1.73;;;7.50;99.90;;;;;;5041295;28;20036;-78